sensor_id;sensor_type;location;lat;lon;timestamp;P1;durP1;ratioP1;P2;durP2;ratioP2
23995;SDS011;12207;50.076;8.848;2022-07-18T00:00:17;265.42;;;13.43;;
23995;SDS011;12207;50.076;8.848;2022-07-18T00:02:44;293.73;;;14.57;;
23995;SDS011;12207;50.076;8.848;2022-07-18T00:05:10;264.95;;;13.10;;
23995;SDS011;12207;50.076;8.848;2022-07-18T00:07:37;249.45;;;12.43;;
23995;SDS011;12207;50.076;8.848;2022-07-18T00:10:04;242.52;;;11.93;;
23995;SDS011;12207;50.076;8.848;2022-07-18T00:12:31;205.98;;;10.27;;
23995;SDS011;12207;50.076;8.848;2022-07-18T00:14:58;234.10;;;11.60;;
23995;SDS011;12207;50.076;8.848;2022-07-18T00:17:25;221.43;;;10.85;;
23995;SDS011;12207;50.076;8.848;2022-07-18T00:19:51;248.45;;;12.27;;
23995;SDS011;12207;50.076;8.848;2022-07-18T00:22:18;220.27;;;10.82;;
23995;SDS011;12207;50.076;8.848;2022-07-18T00:24:45;259.63;;;12.85;;
23995;SDS011;12207;50.076;8.848;2022-07-18T00:27:12;263.02;;;13.23;;
23995;SDS011;12207;50.076;8.848;2022-07-18T00:29:39;313.80;;;16.08;;
23995;SDS011;12207;50.076;8.848;2022-07-18T00:32:07;250.63;;;12.45;;
23995;SDS011;12207;50.076;8.848;2022-07-18T00:34:34;252.68;;;13.38;;
23995;SDS011;12207;50.076;8.848;2022-07-18T00:37:01;202.65;;;9.95;;
23995;SDS011;12207;50.076;8.848;2022-07-18T00:39:28;171.07;;;8.35;;
23995;SDS011;12207;50.076;8.848;2022-07-18T00:41:56;224.15;;;11.32;;
23995;SDS011;12207;50.076;8.848;2022-07-18T00:44:23;266.30;;;13.60;;
23995;SDS011;12207;50.076;8.848;2022-07-18T00:46:52;234.50;;;11.27;;
23995;SDS011;12207;50.076;8.848;2022-07-18T00:49:20;214.18;;;10.48;;
23995;SDS011;12207;50.076;8.848;2022-07-18T00:51:47;238.00;;;11.75;;
23995;SDS011;12207;50.076;8.848;2022-07-18T00:54:14;346.25;;;17.33;;
23995;SDS011;12207;50.076;8.848;2022-07-18T00:56:42;251.02;;;12.48;;
23995;SDS011;12207;50.076;8.848;2022-07-18T00:59:11;242.60;;;12.00;;
23995;SDS011;12207;50.076;8.848;2022-07-18T01:01:38;271.70;;;13.38;;
23995;SDS011;12207;50.076;8.848;2022-07-18T01:04:16;369.75;;;18.55;;
23995;SDS011;12207;50.076;8.848;2022-07-18T01:06:48;263.63;;;12.98;;
23995;SDS011;12207;50.076;8.848;2022-07-18T01:09:17;251.50;;;12.38;;
23995;SDS011;12207;50.076;8.848;2022-07-18T01:11:45;273.35;;;13.48;;
23995;SDS011;12207;50.076;8.848;2022-07-18T01:14:12;391.92;;;19.35;;
23995;SDS011;12207;50.076;8.848;2022-07-18T01:16:40;278.35;;;13.77;;
23995;SDS011;12207;50.076;8.848;2022-07-18T01:19:07;257.58;;;12.77;;
23995;SDS011;12207;50.076;8.848;2022-07-18T01:21:34;269.80;;;13.10;;
23995;SDS011;12207;50.076;8.848;2022-07-18T01:24:03;411.27;;;20.77;;
23995;SDS011;12207;50.076;8.848;2022-07-18T01:26:29;220.95;;;10.95;;
23995;SDS011;12207;50.076;8.848;2022-07-18T01:28:56;211.93;;;10.38;;
23995;SDS011;12207;50.076;8.848;2022-07-18T01:31:23;237.68;;;11.70;;
23995;SDS011;12207;50.076;8.848;2022-07-18T01:33:53;325.20;;;16.08;;
23995;SDS011;12207;50.076;8.848;2022-07-18T01:36:20;235.48;;;11.73;;
23995;SDS011;12207;50.076;8.848;2022-07-18T01:38:47;268.80;;;13.27;;
23995;SDS011;12207;50.076;8.848;2022-07-18T01:41:13;290.08;;;14.32;;
23995;SDS011;12207;50.076;8.848;2022-07-18T01:43:41;245.50;;;12.18;;
23995;SDS011;12207;50.076;8.848;2022-07-18T01:46:08;264.77;;;13.32;;
23995;SDS011;12207;50.076;8.848;2022-07-18T01:48:37;266.45;;;13.23;;
23995;SDS011;12207;50.076;8.848;2022-07-18T01:51:04;207.98;;;10.05;;
23995;SDS011;12207;50.076;8.848;2022-07-18T01:53:36;246.70;;;12.05;;
23995;SDS011;12207;50.076;8.848;2022-07-18T01:56:04;225.55;;;11.07;;
23995;SDS011;12207;50.076;8.848;2022-07-18T01:58:31;180.88;;;8.93;;
23995;SDS011;12207;50.076;8.848;2022-07-18T02:00:58;190.60;;;9.45;;
23995;SDS011;12207;50.076;8.848;2022-07-18T02:03:25;211.50;;;10.52;;
23995;SDS011;12207;50.076;8.848;2022-07-18T02:05:52;199.90;;;9.68;;
23995;SDS011;12207;50.076;8.848;2022-07-18T02:08:18;238.02;;;11.57;;
23995;SDS011;12207;50.076;8.848;2022-07-18T02:10:45;239.70;;;11.80;;
23995;SDS011;12207;50.076;8.848;2022-07-18T02:13:12;267.77;;;13.18;;
23995;SDS011;12207;50.076;8.848;2022-07-18T02:15:39;237.55;;;11.82;;
23995;SDS011;12207;50.076;8.848;2022-07-18T02:18:05;221.23;;;10.85;;
23995;SDS011;12207;50.076;8.848;2022-07-18T02:20:32;270.20;;;13.55;;
23995;SDS011;12207;50.076;8.848;2022-07-18T02:22:59;207.85;;;10.20;;
23995;SDS011;12207;50.076;8.848;2022-07-18T02:25:26;181.95;;;9.13;;
23995;SDS011;12207;50.076;8.848;2022-07-18T02:27:52;220.82;;;10.80;;
23995;SDS011;12207;50.076;8.848;2022-07-18T02:30:19;212.60;;;10.27;;
23995;SDS011;12207;50.076;8.848;2022-07-18T02:32:47;237.75;;;11.45;;
23995;SDS011;12207;50.076;8.848;2022-07-18T02:35:14;245.85;;;11.65;;
23995;SDS011;12207;50.076;8.848;2022-07-18T02:37:40;241.73;;;11.65;;
23995;SDS011;12207;50.076;8.848;2022-07-18T02:40:07;232.68;;;11.10;;
23995;SDS011;12207;50.076;8.848;2022-07-18T02:42:36;230.82;;;11.10;;
23995;SDS011;12207;50.076;8.848;2022-07-18T02:45:06;229.27;;;11.02;;
23995;SDS011;12207;50.076;8.848;2022-07-18T02:47:34;216.65;;;10.68;;
23995;SDS011;12207;50.076;8.848;2022-07-18T02:50:01;195.57;;;9.60;;
23995;SDS011;12207;50.076;8.848;2022-07-18T02:52:29;221.85;;;11.10;;
23995;SDS011;12207;50.076;8.848;2022-07-18T02:54:56;209.10;;;10.27;;
23995;SDS011;12207;50.076;8.848;2022-07-18T02:57:26;189.57;;;9.38;;
23995;SDS011;12207;50.076;8.848;2022-07-18T02:59:53;218.50;;;10.68;;
23995;SDS011;12207;50.076;8.848;2022-07-18T03:02:20;238.32;;;11.82;;
23995;SDS011;12207;50.076;8.848;2022-07-18T03:04:46;259.90;;;12.73;;
23995;SDS011;12207;50.076;8.848;2022-07-18T03:07:13;237.30;;;11.68;;
23995;SDS011;12207;50.076;8.848;2022-07-18T03:09:40;229.13;;;11.23;;
23995;SDS011;12207;50.076;8.848;2022-07-18T03:12:07;252.65;;;12.48;;
23995;SDS011;12207;50.076;8.848;2022-07-18T03:14:34;226.50;;;11.20;;
23995;SDS011;12207;50.076;8.848;2022-07-18T03:17:01;221.82;;;10.98;;
23995;SDS011;12207;50.076;8.848;2022-07-18T03:19:27;210.02;;;10.25;;
23995;SDS011;12207;50.076;8.848;2022-07-18T03:21:54;230.27;;;11.55;;
23995;SDS011;12207;50.076;8.848;2022-07-18T03:24:21;342.73;;;17.13;;
23995;SDS011;12207;50.076;8.848;2022-07-18T03:26:48;255.40;;;12.48;;
23995;SDS011;12207;50.076;8.848;2022-07-18T03:29:14;277.75;;;13.68;;
23995;SDS011;12207;50.076;8.848;2022-07-18T03:31:41;258.63;;;12.63;;
23995;SDS011;12207;50.076;8.848;2022-07-18T03:34:08;408.85;;;20.38;;
23995;SDS011;12207;50.076;8.848;2022-07-18T03:36:35;228.35;;;11.20;;
23995;SDS011;12207;50.076;8.848;2022-07-18T03:39:02;220.60;;;10.77;;
23995;SDS011;12207;50.076;8.848;2022-07-18T03:41:30;203.45;;;9.80;;
23995;SDS011;12207;50.076;8.848;2022-07-18T03:43:57;323.45;;;15.93;;
23995;SDS011;12207;50.076;8.848;2022-07-18T03:46:24;224.73;;;11.15;;
23995;SDS011;12207;50.076;8.848;2022-07-18T03:48:51;222.18;;;10.93;;
23995;SDS011;12207;50.076;8.848;2022-07-18T03:51:18;295.88;;;14.73;;
23995;SDS011;12207;50.076;8.848;2022-07-18T03:53:44;272.38;;;13.32;;
23995;SDS011;12207;50.076;8.848;2022-07-18T03:56:11;233.55;;;11.68;;
23995;SDS011;12207;50.076;8.848;2022-07-18T03:58:38;297.42;;;14.82;;
23995;SDS011;12207;50.076;8.848;2022-07-18T04:01:05;251.25;;;12.35;;
23995;SDS011;12207;50.076;8.848;2022-07-18T04:03:32;194.85;;;9.57;;
23995;SDS011;12207;50.076;8.848;2022-07-18T04:05:59;246.70;;;12.20;;
23995;SDS011;12207;50.076;8.848;2022-07-18T04:08:25;205.57;;;10.18;;
23995;SDS011;12207;50.076;8.848;2022-07-18T04:10:52;225.43;;;11.15;;
23995;SDS011;12207;50.076;8.848;2022-07-18T04:13:19;228.23;;;11.25;;
23995;SDS011;12207;50.076;8.848;2022-07-18T04:15:46;290.20;;;14.90;;
23995;SDS011;12207;50.076;8.848;2022-07-18T04:18:13;300.77;;;15.45;;
23995;SDS011;12207;50.076;8.848;2022-07-18T04:20:39;311.13;;;16.35;;
23995;SDS011;12207;50.076;8.848;2022-07-18T04:23:07;250.05;;;14.27;;
23995;SDS011;12207;50.076;8.848;2022-07-18T04:25:38;252.75;;;14.18;;
23995;SDS011;12207;50.076;8.848;2022-07-18T04:28:07;187.32;;;11.77;;
23995;SDS011;12207;50.076;8.848;2022-07-18T04:30:35;256.85;;;16.10;;
23995;SDS011;12207;50.076;8.848;2022-07-18T04:33:03;171.48;;;10.80;;
23995;SDS011;12207;50.076;8.848;2022-07-18T04:35:31;215.60;;;15.88;;
23995;SDS011;12207;50.076;8.848;2022-07-18T04:38:01;206.07;;;18.27;;
23995;SDS011;12207;50.076;8.848;2022-07-18T04:40:29;285.73;;;27.30;;
23995;SDS011;12207;50.076;8.848;2022-07-18T04:42:56;224.18;;;27.33;;
23995;SDS011;12207;50.076;8.848;2022-07-18T04:45:23;245.20;;;35.58;;
23995;SDS011;12207;50.076;8.848;2022-07-18T04:47:50;282.50;;;43.95;;
23995;SDS011;12207;50.076;8.848;2022-07-18T04:50:18;293.98;;;56.22;;
23995;SDS011;12207;50.076;8.848;2022-07-18T04:52:45;321.50;;;65.53;;
23995;SDS011;12207;50.076;8.848;2022-07-18T04:55:14;299.27;;;77.55;;
23995;SDS011;12207;50.076;8.848;2022-07-18T04:57:43;338.75;;;92.75;;
23995;SDS011;12207;50.076;8.848;2022-07-18T05:00:12;363.08;;;109.13;;
23995;SDS011;12207;50.076;8.848;2022-07-18T05:02:43;347.77;;;109.18;;
23995;SDS011;12207;50.076;8.848;2022-07-18T05:05:13;345.55;;;117.03;;
23995;SDS011;12207;50.076;8.848;2022-07-18T05:07:41;383.77;;;134.23;;
23995;SDS011;12207;50.076;8.848;2022-07-18T05:10:10;352.40;;;130.77;;
23995;SDS011;12207;50.076;8.848;2022-07-18T05:12:38;395.13;;;140.00;;
23995;SDS011;12207;50.076;8.848;2022-07-18T05:15:07;381.88;;;143.85;;
23995;SDS011;12207;50.076;8.848;2022-07-18T05:17:35;392.20;;;144.60;;
23995;SDS011;12207;50.076;8.848;2022-07-18T05:20:03;384.52;;;152.25;;
23995;SDS011;12207;50.076;8.848;2022-07-18T05:22:34;369.92;;;155.55;;
23995;SDS011;12207;50.076;8.848;2022-07-18T05:25:02;382.73;;;160.27;;
23995;SDS011;12207;50.076;8.848;2022-07-18T05:27:30;376.20;;;163.90;;
23995;SDS011;12207;50.076;8.848;2022-07-18T05:29:58;372.08;;;154.45;;
23995;SDS011;12207;50.076;8.848;2022-07-18T05:32:25;381.65;;;159.98;;
23995;SDS011;12207;50.076;8.848;2022-07-18T05:34:52;359.20;;;146.65;;
23995;SDS011;12207;50.076;8.848;2022-07-18T05:37:19;382.23;;;154.15;;
23995;SDS011;12207;50.076;8.848;2022-07-18T05:39:46;373.05;;;139.27;;
23995;SDS011;12207;50.076;8.848;2022-07-18T05:42:13;386.23;;;130.52;;
23995;SDS011;12207;50.076;8.848;2022-07-18T05:44:40;352.52;;;133.85;;
23995;SDS011;12207;50.076;8.848;2022-07-18T05:47:07;399.63;;;141.13;;
23995;SDS011;12207;50.076;8.848;2022-07-18T05:49:34;327.08;;;128.07;;
23995;SDS011;12207;50.076;8.848;2022-07-18T05:52:01;367.92;;;140.18;;
23995;SDS011;12207;50.076;8.848;2022-07-18T05:54:28;470.08;;;152.70;;
23995;SDS011;12207;50.076;8.848;2022-07-18T05:56:54;337.30;;;141.45;;
23995;SDS011;12207;50.076;8.848;2022-07-18T05:59:21;368.98;;;150.80;;
23995;SDS011;12207;50.076;8.848;2022-07-18T06:01:48;386.02;;;154.23;;
23995;SDS011;12207;50.076;8.848;2022-07-18T06:04:15;623.75;;;172.13;;
23995;SDS011;12207;50.076;8.848;2022-07-18T06:06:42;451.20;;;150.13;;
23995;SDS011;12207;50.076;8.848;2022-07-18T06:09:10;402.85;;;135.65;;
23995;SDS011;12207;50.076;8.848;2022-07-18T06:11:38;404.27;;;135.45;;
23995;SDS011;12207;50.076;8.848;2022-07-18T06:14:04;537.75;;;150.75;;
23995;SDS011;12207;50.076;8.848;2022-07-18T06:16:31;347.50;;;133.02;;
23995;SDS011;12207;50.076;8.848;2022-07-18T06:18:58;319.95;;;130.80;;
23995;SDS011;12207;50.076;8.848;2022-07-18T06:21:25;358.45;;;136.32;;
23995;SDS011;12207;50.076;8.848;2022-07-18T06:23:52;457.77;;;149.88;;
23995;SDS011;12207;50.076;8.848;2022-07-18T06:26:19;387.52;;;142.02;;
23995;SDS011;12207;50.076;8.848;2022-07-18T06:28:47;418.33;;;147.90;;
23995;SDS011;12207;50.076;8.848;2022-07-18T06:31:14;408.80;;;169.55;;
23995;SDS011;12207;50.076;8.848;2022-07-18T06:33:41;427.40;;;159.73;;
23995;SDS011;12207;50.076;8.848;2022-07-18T06:36:08;419.42;;;156.60;;
23995;SDS011;12207;50.076;8.848;2022-07-18T06:38:37;421.02;;;160.63;;
23995;SDS011;12207;50.076;8.848;2022-07-18T06:41:05;427.40;;;155.57;;
23995;SDS011;12207;50.076;8.848;2022-07-18T06:43:32;388.10;;;158.60;;
23995;SDS011;12207;50.076;8.848;2022-07-18T06:45:59;374.85;;;155.52;;
23995;SDS011;12207;50.076;8.848;2022-07-18T06:48:25;393.92;;;163.98;;
23995;SDS011;12207;50.076;8.848;2022-07-18T06:50:58;352.88;;;148.68;;
23995;SDS011;12207;50.076;8.848;2022-07-18T06:53:30;392.50;;;152.73;;
23995;SDS011;12207;50.076;8.848;2022-07-18T06:55:57;388.38;;;139.88;;
23995;SDS011;12207;50.076;8.848;2022-07-18T06:58:24;301.55;;;124.15;;
23995;SDS011;12207;50.076;8.848;2022-07-18T07:00:51;371.83;;;136.77;;
23995;SDS011;12207;50.076;8.848;2022-07-18T07:03:18;399.20;;;136.63;;
23995;SDS011;12207;50.076;8.848;2022-07-18T07:05:44;395.30;;;126.32;;
23995;SDS011;12207;50.076;8.848;2022-07-18T07:08:11;387.42;;;125.63;;
23995;SDS011;12207;50.076;8.848;2022-07-18T07:10:39;428.00;;;123.85;;
23995;SDS011;12207;50.076;8.848;2022-07-18T07:13:06;334.13;;;107.20;;
23995;SDS011;12207;50.076;8.848;2022-07-18T07:15:32;380.25;;;117.78;;
23995;SDS011;12207;50.076;8.848;2022-07-18T07:17:59;339.75;;;112.32;;
23995;SDS011;12207;50.076;8.848;2022-07-18T07:20:26;321.42;;;114.32;;
23995;SDS011;12207;50.076;8.848;2022-07-18T07:22:54;339.23;;;114.85;;
23995;SDS011;12207;50.076;8.848;2022-07-18T07:25:22;320.95;;;116.85;;
23995;SDS011;12207;50.076;8.848;2022-07-18T07:27:51;376.52;;;120.13;;
23995;SDS011;12207;50.076;8.848;2022-07-18T07:30:18;372.70;;;123.35;;
23995;SDS011;12207;50.076;8.848;2022-07-18T07:32:45;436.80;;;123.00;;
23995;SDS011;12207;50.076;8.848;2022-07-18T07:35:14;380.60;;;122.10;;
23995;SDS011;12207;50.076;8.848;2022-07-18T07:37:43;428.23;;;127.43;;
23995;SDS011;12207;50.076;8.848;2022-07-18T07:40:11;439.88;;;129.50;;
23995;SDS011;12207;50.076;8.848;2022-07-18T07:42:39;352.52;;;117.22;;
23995;SDS011;12207;50.076;8.848;2022-07-18T07:45:06;422.30;;;133.40;;
23995;SDS011;12207;50.076;8.848;2022-07-18T07:47:35;420.40;;;143.65;;
23995;SDS011;12207;50.076;8.848;2022-07-18T07:50:03;359.42;;;133.32;;
23995;SDS011;12207;50.076;8.848;2022-07-18T07:52:31;359.92;;;134.65;;
23995;SDS011;12207;50.076;8.848;2022-07-18T07:54:58;392.20;;;148.43;;
23995;SDS011;12207;50.076;8.848;2022-07-18T07:57:24;417.20;;;149.15;;
23995;SDS011;12207;50.076;8.848;2022-07-18T07:59:51;415.90;;;159.13;;
23995;SDS011;12207;50.076;8.848;2022-07-18T08:02:18;415.17;;;160.05;;
23995;SDS011;12207;50.076;8.848;2022-07-18T08:04:45;436.98;;;163.57;;
23995;SDS011;12207;50.076;8.848;2022-07-18T08:07:12;460.00;;;165.15;;
23995;SDS011;12207;50.076;8.848;2022-07-18T08:09:38;472.55;;;164.63;;
23995;SDS011;12207;50.076;8.848;2022-07-18T08:12:05;400.50;;;164.85;;
23995;SDS011;12207;50.076;8.848;2022-07-18T08:14:32;493.40;;;179.90;;
23995;SDS011;12207;50.076;8.848;2022-07-18T08:16:59;423.45;;;172.40;;
23995;SDS011;12207;50.076;8.848;2022-07-18T08:19:26;389.58;;;167.43;;
23995;SDS011;12207;50.076;8.848;2022-07-18T08:21:53;373.90;;;166.73;;
23995;SDS011;12207;50.076;8.848;2022-07-18T08:24:20;561.40;;;184.23;;
23995;SDS011;12207;50.076;8.848;2022-07-18T08:26:46;468.52;;;183.90;;
23995;SDS011;12207;50.076;8.848;2022-07-18T08:29:13;460.98;;;182.63;;
23995;SDS011;12207;50.076;8.848;2022-07-18T08:31:40;493.80;;;196.05;;
23995;SDS011;12207;50.076;8.848;2022-07-18T08:34:07;635.58;;;213.13;;
23995;SDS011;12207;50.076;8.848;2022-07-18T08:36:34;471.58;;;191.20;;
23995;SDS011;12207;50.076;8.848;2022-07-18T08:39:00;458.08;;;188.13;;
23995;SDS011;12207;50.076;8.848;2022-07-18T08:41:27;435.85;;;180.00;;
23995;SDS011;12207;50.076;8.848;2022-07-18T08:43:54;541.08;;;192.20;;
23995;SDS011;12207;50.076;8.848;2022-07-18T08:46:22;466.92;;;189.52;;
23995;SDS011;12207;50.076;8.848;2022-07-18T08:48:50;462.00;;;177.18;;
23995;SDS011;12207;50.076;8.848;2022-07-18T08:51:19;459.60;;;170.88;;
23995;SDS011;12207;50.076;8.848;2022-07-18T08:53:47;488.52;;;184.63;;
23995;SDS011;12207;50.076;8.848;2022-07-18T08:56:17;479.17;;;183.15;;
23995;SDS011;12207;50.076;8.848;2022-07-18T08:58:44;511.48;;;184.68;;
23995;SDS011;12207;50.076;8.848;2022-07-18T09:01:11;523.63;;;187.43;;
23995;SDS011;12207;50.076;8.848;2022-07-18T09:03:38;493.27;;;186.98;;
23995;SDS011;12207;50.076;8.848;2022-07-18T09:06:08;448.58;;;175.00;;
23995;SDS011;12207;50.076;8.848;2022-07-18T09:08:40;486.35;;;171.52;;
23995;SDS011;12207;50.076;8.848;2022-07-18T09:11:24;425.42;;;159.90;;
23995;SDS011;12207;50.076;8.848;2022-07-18T09:13:51;519.13;;;179.85;;
23995;SDS011;12207;50.076;8.848;2022-07-18T09:16:18;479.90;;;169.45;;
23995;SDS011;12207;50.076;8.848;2022-07-18T09:18:47;479.38;;;168.60;;
23995;SDS011;12207;50.076;8.848;2022-07-18T09:23:44;515.05;;;178.23;;
23995;SDS011;12207;50.076;8.848;2022-07-18T09:26:33;458.27;;;174.65;;
23995;SDS011;12207;50.076;8.848;2022-07-18T09:29:05;449.58;;;171.25;;
23995;SDS011;12207;50.076;8.848;2022-07-18T09:31:32;449.55;;;187.27;;
23995;SDS011;12207;50.076;8.848;2022-07-18T09:34:00;579.90;;;196.48;;
23995;SDS011;12207;50.076;8.848;2022-07-18T09:36:28;434.77;;;174.13;;
23995;SDS011;12207;50.076;8.848;2022-07-18T09:38:59;435.23;;;177.32;;
23995;SDS011;12207;50.076;8.848;2022-07-18T09:41:28;414.92;;;166.98;;
23995;SDS011;12207;50.076;8.848;2022-07-18T09:43:55;556.28;;;178.45;;
23995;SDS011;12207;50.076;8.848;2022-07-18T09:46:24;380.52;;;159.90;;
23995;SDS011;12207;50.076;8.848;2022-07-18T09:49:07;438.80;;;172.25;;
23995;SDS011;12207;50.076;8.848;2022-07-18T09:51:35;442.10;;;173.07;;
23995;SDS011;12207;50.076;8.848;2022-07-18T09:54:01;572.58;;;182.52;;
23995;SDS011;12207;50.076;8.848;2022-07-18T09:56:28;389.15;;;169.30;;
23995;SDS011;12207;50.076;8.848;2022-07-18T09:58:59;403.05;;;175.07;;
23995;SDS011;12207;50.076;8.848;2022-07-18T10:01:26;390.23;;;171.60;;
23995;SDS011;12207;50.076;8.848;2022-07-18T10:03:53;518.35;;;187.13;;
23995;SDS011;12207;50.076;8.848;2022-07-18T10:06:21;405.77;;;177.10;;
23995;SDS011;12207;50.076;8.848;2022-07-18T10:08:49;462.45;;;184.65;;
23995;SDS011;12207;50.076;8.848;2022-07-18T10:11:16;448.85;;;180.07;;
23995;SDS011;12207;50.076;8.848;2022-07-18T10:13:43;474.60;;;177.48;;
23995;SDS011;12207;50.076;8.848;2022-07-18T10:16:11;458.30;;;178.30;;
23995;SDS011;12207;50.076;8.848;2022-07-18T10:18:37;443.58;;;179.27;;
23995;SDS011;12207;50.076;8.848;2022-07-18T10:21:05;440.95;;;185.77;;
23995;SDS011;12207;50.076;8.848;2022-07-18T10:31:24;406.45;;;174.57;;
23995;SDS011;12207;50.076;8.848;2022-07-18T10:33:53;503.33;;;190.13;;
23995;SDS011;12207;50.076;8.848;2022-07-18T10:37:23;427.58;;;190.20;;
23995;SDS011;12207;50.076;8.848;2022-07-18T10:39:20;408.98;;;185.02;;
23995;SDS011;12207;50.076;8.848;2022-07-18T10:47:06;404.17;;;178.73;;
23995;SDS011;12207;50.076;8.848;2022-07-18T11:00:12;389.38;;;174.73;;
23995;SDS011;12207;50.076;8.848;2022-07-18T11:02:42;468.98;;;185.10;;
23995;SDS011;12207;50.076;8.848;2022-07-18T11:18:22;428.27;;;201.45;;
23995;SDS011;12207;50.076;8.848;2022-07-18T11:20:49;483.00;;;212.10;;
23995;SDS011;12207;50.076;8.848;2022-07-18T11:23:21;489.67;;;211.38;;
23995;SDS011;12207;50.076;8.848;2022-07-18T11:25:53;446.38;;;211.25;;
23995;SDS011;12207;50.076;8.848;2022-07-18T11:28:24;411.60;;;195.38;;
23995;SDS011;12207;50.076;8.848;2022-07-18T11:31:06;437.48;;;213.70;;
23995;SDS011;12207;50.076;8.848;2022-07-18T11:33:35;439.10;;;212.43;;
23995;SDS011;12207;50.076;8.848;2022-07-18T11:36:05;460.23;;;207.20;;
23995;SDS011;12207;50.076;8.848;2022-07-18T11:38:37;481.42;;;205.32;;
23995;SDS011;12207;50.076;8.848;2022-07-18T11:41:11;487.45;;;202.27;;
23995;SDS011;12207;50.076;8.848;2022-07-18T11:43:37;479.40;;;202.55;;
23995;SDS011;12207;50.076;8.848;2022-07-18T11:46:05;454.38;;;203.23;;
23995;SDS011;12207;50.076;8.848;2022-07-18T11:48:39;512.58;;;220.00;;
23995;SDS011;12207;50.076;8.848;2022-07-18T11:53:50;514.33;;;210.15;;
23995;SDS011;12207;50.076;8.848;2022-07-18T11:56:19;433.77;;;197.98;;
23995;SDS011;12207;50.076;8.848;2022-07-18T11:58:48;448.27;;;188.65;;
23995;SDS011;12207;50.076;8.848;2022-07-18T12:01:15;468.77;;;200.93;;
23995;SDS011;12207;50.076;8.848;2022-07-18T12:03:46;458.38;;;194.02;;
23995;SDS011;12207;50.076;8.848;2022-07-18T12:06:15;485.80;;;190.90;;
23995;SDS011;12207;50.076;8.848;2022-07-18T12:08:47;450.95;;;193.05;;
23995;SDS011;12207;50.076;8.848;2022-07-18T12:11:24;485.35;;;200.45;;
23995;SDS011;12207;50.076;8.848;2022-07-18T12:13:54;506.83;;;208.75;;
23995;SDS011;12207;50.076;8.848;2022-07-18T12:16:34;431.45;;;210.63;;
23995;SDS011;12207;50.076;8.848;2022-07-18T12:19:08;401.33;;;197.48;;
23995;SDS011;12207;50.076;8.848;2022-07-18T12:21:53;455.30;;;202.63;;
23995;SDS011;12207;50.076;8.848;2022-07-18T12:24:41;527.85;;;217.15;;
23995;SDS011;12207;50.076;8.848;2022-07-18T12:30:00;413.80;;;191.40;;
23995;SDS011;12207;50.076;8.848;2022-07-18T12:35:28;433.55;;;196.27;;
23995;SDS011;12207;50.076;8.848;2022-07-18T12:38:03;440.80;;;209.07;;
23995;SDS011;12207;50.076;8.848;2022-07-18T12:40:46;504.45;;;217.60;;
23995;SDS011;12207;50.076;8.848;2022-07-18T12:43:34;483.30;;;209.27;;
23995;SDS011;12207;50.076;8.848;2022-07-18T12:46:04;471.23;;;212.80;;
23995;SDS011;12207;50.076;8.848;2022-07-18T12:48:33;442.15;;;219.57;;
23995;SDS011;12207;50.076;8.848;2022-07-18T12:51:02;424.35;;;206.38;;
23995;SDS011;12207;50.076;8.848;2022-07-18T12:53:34;472.15;;;217.15;;
23995;SDS011;12207;50.076;8.848;2022-07-18T12:56:03;439.30;;;210.82;;
23995;SDS011;12207;50.076;8.848;2022-07-18T12:58:30;411.55;;;215.27;;
23995;SDS011;12207;50.076;8.848;2022-07-18T13:00:57;398.90;;;206.10;;
23995;SDS011;12207;50.076;8.848;2022-07-18T13:03:24;444.15;;;196.70;;
23995;SDS011;12207;50.076;8.848;2022-07-18T13:05:51;464.17;;;211.82;;
23995;SDS011;12207;50.076;8.848;2022-07-18T13:08:18;483.15;;;204.27;;
23995;SDS011;12207;50.076;8.848;2022-07-18T13:10:45;447.10;;;200.60;;
23995;SDS011;12207;50.076;8.848;2022-07-18T13:13:12;473.58;;;206.90;;
23995;SDS011;12207;50.076;8.848;2022-07-18T13:15:39;513.13;;;224.93;;
23995;SDS011;12207;50.076;8.848;2022-07-18T13:18:05;491.38;;;210.60;;
23995;SDS011;12207;50.076;8.848;2022-07-18T13:20:32;458.83;;;206.00;;
23995;SDS011;12207;50.076;8.848;2022-07-18T13:22:59;424.17;;;200.88;;
23995;SDS011;12207;50.076;8.848;2022-07-18T13:25:27;458.15;;;213.18;;
23995;SDS011;12207;50.076;8.848;2022-07-18T13:27:54;438.73;;;214.88;;
23995;SDS011;12207;50.076;8.848;2022-07-18T13:30:20;450.52;;;223.45;;
23995;SDS011;12207;50.076;8.848;2022-07-18T13:32:47;490.67;;;219.63;;
23995;SDS011;12207;50.076;8.848;2022-07-18T13:35:14;514.72;;;219.52;;
23995;SDS011;12207;50.076;8.848;2022-07-18T13:37:41;494.02;;;211.25;;
23995;SDS011;12207;50.076;8.848;2022-07-18T13:40:08;507.92;;;222.82;;
23995;SDS011;12207;50.076;8.848;2022-07-18T13:42:36;441.77;;;202.13;;
23995;SDS011;12207;50.076;8.848;2022-07-18T13:45:03;466.73;;;215.55;;
23995;SDS011;12207;50.076;8.848;2022-07-18T13:47:31;475.92;;;251.15;;
23995;SDS011;12207;50.076;8.848;2022-07-18T13:49:58;424.27;;;205.68;;
23995;SDS011;12207;50.076;8.848;2022-07-18T13:52:25;465.50;;;213.98;;
23995;SDS011;12207;50.076;8.848;2022-07-18T13:54:52;467.48;;;208.90;;
23995;SDS011;12207;50.076;8.848;2022-07-18T13:57:20;472.05;;;214.10;;
23995;SDS011;12207;50.076;8.848;2022-07-18T13:59:47;477.95;;;216.65;;
23995;SDS011;12207;50.076;8.848;2022-07-18T14:02:14;470.67;;;210.38;;
23995;SDS011;12207;50.076;8.848;2022-07-18T14:04:41;490.95;;;214.40;;
23995;SDS011;12207;50.076;8.848;2022-07-18T14:07:08;506.13;;;209.60;;
23995;SDS011;12207;50.076;8.848;2022-07-18T14:09:37;466.02;;;209.25;;
23995;SDS011;12207;50.076;8.848;2022-07-18T14:12:04;469.20;;;220.73;;
23995;SDS011;12207;50.076;8.848;2022-07-18T14:14:31;462.40;;;218.77;;
23995;SDS011;12207;50.076;8.848;2022-07-18T14:16:58;453.42;;;219.57;;
23995;SDS011;12207;50.076;8.848;2022-07-18T14:19:24;442.75;;;212.52;;
23995;SDS011;12207;50.076;8.848;2022-07-18T14:21:51;471.05;;;224.27;;
23995;SDS011;12207;50.076;8.848;2022-07-18T14:24:18;681.55;;;236.05;;
23995;SDS011;12207;50.076;8.848;2022-07-18T14:26:45;537.70;;;226.27;;
23995;SDS011;12207;50.076;8.848;2022-07-18T14:29:11;501.25;;;221.02;;
23995;SDS011;12207;50.076;8.848;2022-07-18T14:31:38;488.10;;;231.32;;
23995;SDS011;12207;50.076;8.848;2022-07-18T14:34:05;657.10;;;244.82;;
23995;SDS011;12207;50.076;8.848;2022-07-18T14:36:32;474.83;;;220.90;;
23995;SDS011;12207;50.076;8.848;2022-07-18T14:38:58;453.30;;;213.82;;
23995;SDS011;12207;50.076;8.848;2022-07-18T14:41:25;463.73;;;221.10;;
23995;SDS011;12207;50.076;8.848;2022-07-18T14:43:53;563.67;;;228.27;;
23995;SDS011;12207;50.076;8.848;2022-07-18T14:46:20;492.75;;;214.77;;
23995;SDS011;12207;50.076;8.848;2022-07-18T14:48:47;530.13;;;234.15;;
23995;SDS011;12207;50.076;8.848;2022-07-18T14:51:17;527.05;;;221.02;;
23995;SDS011;12207;50.076;8.848;2022-07-18T14:53:45;515.88;;;220.63;;